Foymount, Canada
Current Conditions -  °F | °C
As of 7:00 AM on Friday 19 Dec 2014 (Local Time) from CYWA Reporting Station
Clear Clear  
Wind Chill:   Ceiling: Unl
Heat Index: 12°   Visibility: 9mi
Dew Point:   Wind: 7mph
Humidity: 85%   Direction: 290°WNW
Pressure: 30.14"   Gusts: NA
Location:  45.45°N, 77.32°W
Report Text: CYWA 191200Z AUTO 29006KT 9SM CLR M11/M13 A3014 RMK SLP216
Loading
Personal Weather Stations






























Interactive Weather Map New forecast layout! Learn more

10-Day Weather Forecast

Advertisements
Track Severe Weather on mobile